Airfield :
LOGIN :

Register | Disclaimer

   EN    FR    IT 

 










Legend :    VFR   Marginal VFR   IFR   Intensive IFR   Very Intensive IFR
Visi :
Ceiling :
>= 8 km
>= 3000ft
5 to 8 km
1000 to 3000 ft
1500m to 5 km
500 to 1000 ft
800 to 1500m
200 to 500 ft
< 800m
< 200 ft
Symbols :   Thunderstorms  Fog  Heavy snow  Heavy precipitations  Wind > 20 kt
SIGMETs :     Misc.  Thunderstorms  Icing  Turbulence  Mountain Waves  Volcanic Ashes







- Airport Elevation : 197 ft
- IATA code : XOG
- Download approach charts


LFMO - Orange

CURRENT METAR :
  • 222200Z AUTO 35024G36KT CAVOK 19/06 Q1018 NOSIG

EXPIRED METARs :
  • 222130Z AUTO 35024G35KT CAVOK 20/06 Q1017 TEMPO 35030G45KT
  • 222100Z AUTO 35025G36KT CAVOK 20/06 Q1017 NOSIG
  • 222030Z AUTO 35025G39KT CAVOK 20/06 Q1017 NOSIG
  • 222000Z AUTO 35026G38KT CAVOK 21/06 Q1016 NOSIG
  • 221930Z AUTO 35026G39KT CAVOK 21/07 Q1016 NOSIG

TAF TAF LFMO
Valid from the 22 at 21:00 until the 23 at 21:00 UTC


222000Z 2221/2321 35025G35KT CAVOK
TEMPO 2221/2302 35030G45KT
BECMG 2304/2306 34020KT
TEMPO 2313/2321 35020G30KT
No reported NOTAMs for that airfield.
1 SIGMET reported for the Marseille FIR (LFMM) :
 
Severe turbulence
LFMM SIGMET 4 VALID 221900/222300 LFPW
LFMM MARSEILLE FIR/UIR SEV TURB FCST WI N4500 E00500 - N4300 E00515 - N4315 E00415 - N4500 E00330 - N4500 E00500 SFC/FL050 STNR WKN=



MET'MAP, your aeronautical weather chart ! - Copyright ORBIFLY December 2007 - Disclaimer

ORBIFLY MET'MAP TEAM :

Programming & Development : Alexandra Zaïnal
Concept & Development : Baudouin d'Aumeries
Co-Development & Prog : Marc-Olivier Méhu
Technical & hardware support : Manuel Goepfert

Contact : metmap@orbifly.com




SOURCES & CREDITS :

   NOAA